CYBB/YBB METAR and TAF weather

Enter ICAO airport designator
Station Type Date Time Source
CYBB METAR 2022/11/27 04:00 UTC NOAA

CYBB 270400Z 00000KT 15SM SKC M34/M37 A3000 RMK SLP165


Station Type Date Time Source
CYBB Decoded METAR 2022/11/27 04:00 UTC NOAA

Pelly Bay Airport, Canada (CYBB) 68-32N 089-49W
Nov 26, 2022 - 11:00 PM EST / 2022.11.27 0400 UTC
Wind: Calm:0
Visibility: 15 mile(s):0
Sky conditions: clear
Temperature: -29 F (-34 C)
Dew Point: -34 F (-37 C)
Relative Humidity: 74%
Pressure (altimeter): 30 in. Hg (1015 hPa)
ob: CYBB 270400Z 00000KT 15SM SKC M34/M37 A3000 RMK SLP165
cycle: 4

Station Type Date Time Source
CYBB TAF 2022/11/26 21:33 UTC NOAA

TAF
AMD TAF
AMD CYBB 262130Z 2621/2704 26006KT P6SM FEW120
BECMG 2621/2623 20008KT
RMK NXT FCST BY 272000Z

Example: see airport list